createdAt,value
2022-11-12T00:00:16.639Z,10.52
2022-11-12T00:02:58.751Z,11.07
2022-11-12T00:05:40.778Z,10.43
2022-11-12T00:08:23.378Z,9.90
2022-11-12T00:11:06.022Z,10.82
2022-11-12T00:13:49.077Z,11.65
2022-11-12T00:16:31.361Z,9.55
2022-11-12T00:19:12.973Z,11.73
2022-11-12T00:21:54.939Z,9.27
2022-11-12T00:24:37.006Z,9.10
2022-11-12T00:27:19.154Z,9.48
2022-11-12T00:30:02.525Z,10.50
2022-11-12T00:32:44.560Z,11.02
2022-11-12T00:35:26.138Z,12.50
2022-11-12T00:38:08.169Z,10.20
2022-11-12T00:40:50.467Z,14.43
2022-11-12T00:43:32.531Z,11.77
2022-11-12T00:46:15.873Z,9.93
2022-11-12T00:48:57.477Z,11.65
2022-11-12T00:51:40.152Z,7.93
2022-11-12T00:54:21.963Z,11.43
2022-11-12T00:57:03.959Z,13.93
2022-11-12T00:59:46.058Z,12.13
2022-11-12T01:02:29.305Z,11.23
2022-11-12T01:05:11.952Z,12.40
2022-11-12T01:07:56.229Z,11.50
2022-11-12T01:10:38.131Z,13.95
2022-11-12T01:13:20.131Z,11.38
2022-11-12T01:16:07.261Z,13.57
2022-11-12T01:18:54.318Z,11.63
2022-11-12T01:21:40.917Z,12.73
2022-11-12T01:24:22.508Z,13.15
2022-11-12T01:27:04.825Z,11.13
2022-11-12T01:29:46.404Z,11.73
2022-11-12T01:32:35.735Z,11.57
2022-11-12T01:35:18.920Z,15.13
2022-11-12T01:38:00.958Z,10.50
2022-11-12T01:40:42.990Z,13.00
2022-11-12T01:43:24.919Z,12.50
2022-11-12T01:46:15.898Z,12.00
2022-11-12T01:49:02.413Z,16.02
2022-11-12T01:51:50.534Z,14.57
2022-11-12T01:54:32.692Z,10.82
2022-11-12T01:57:15.445Z,11.68
2022-11-12T02:00:04.410Z,14.15
2022-11-12T02:02:53.454Z,11.20
2022-11-12T02:05:35.924Z,14.03
2022-11-12T02:08:19.363Z,15.90
2022-11-12T02:11:13.719Z,13.70
2022-11-12T02:14:01.063Z,15.63
2022-11-12T02:16:46.033Z,10.93
2022-11-12T02:19:27.836Z,13.23
2022-11-12T02:22:10.766Z,11.65
2022-11-12T02:24:52.514Z,9.40
2022-11-12T02:27:34.876Z,12.43
2022-11-12T02:30:16.856Z,11.23
2022-11-12T02:32:58.853Z,9.13
2022-11-12T02:35:40.859Z,12.75
2022-11-12T02:38:24.299Z,10.50
2022-11-12T02:41:06.761Z,12.45
2022-11-12T02:43:49.016Z,10.60
2022-11-12T02:46:31.185Z,10.03
2022-11-12T02:49:13.147Z,11.47
2022-11-12T02:51:55.168Z,9.85
2022-11-12T02:54:38.329Z,11.05
2022-11-12T02:57:20.266Z,12.38
2022-11-12T03:00:02.485Z,9.85
2022-11-12T03:02:58.764Z,9.60
2022-11-12T03:05:40.728Z,9.63
2022-11-12T03:08:22.881Z,14.40
2022-11-12T03:11:10.586Z,11.55
2022-11-12T03:13:52.352Z,11.48
2022-11-12T03:16:34.150Z,9.07
2022-11-12T03:19:15.835Z,11.67
2022-11-12T03:21:57.865Z,9.53
2022-11-12T03:24:39.869Z,11.53
2022-11-12T03:27:23.028Z,10.10
2022-11-12T03:30:05.872Z,9.52
2022-11-12T03:32:47.606Z,10.77
2022-11-12T03:35:30.011Z,10.32
2022-11-12T03:38:11.586Z,11.77
2022-11-12T03:40:53.681Z,10.85
2022-11-12T03:43:37.402Z,11.43
2022-11-12T03:46:19.551Z,12.52
2022-11-12T03:49:02.705Z,11.88
2022-11-12T03:51:44.693Z,9.60
2022-11-12T03:54:26.538Z,16.53
2022-11-12T03:57:08.455Z,12.33
2022-11-12T03:59:51.638Z,10.35
2022-11-12T04:02:33.615Z,8.98
2022-11-12T04:05:33.138Z,11.80
2022-11-12T04:08:35.408Z,11.80
2022-11-12T04:11:18.635Z,12.45
2022-11-12T04:14:00.576Z,7.13
2022-11-12T04:17:01.449Z,10.82
2022-11-12T04:20:00.880Z,10.20
2022-11-12T04:22:42.927Z,9.18
2022-11-12T04:25:41.616Z,10.77
2022-11-12T04:28:23.804Z,7.97
2022-11-12T04:31:04.731Z,8.45
2022-11-12T04:33:48.102Z,12.55
2022-11-12T04:36:29.819Z,10.32
2022-11-12T04:39:12.266Z,12.47
2022-11-12T04:42:11.752Z,11.10
2022-11-12T04:45:04.790Z,9.75
2022-11-12T04:47:46.567Z,11.35
2022-11-12T04:50:29.807Z,12.23
2022-11-12T04:53:11.504Z,10.80
2022-11-12T04:55:54.479Z,13.80
2022-11-12T04:58:36.364Z,11.53
2022-11-12T05:01:18.280Z,10.77
2022-11-12T05:04:00.086Z,11.57
2022-11-12T05:06:55.431Z,11.10
2022-11-12T05:09:37.765Z,11.45
2022-11-12T05:12:19.764Z,10.05
2022-11-12T05:15:01.911Z,10.43
2022-11-12T05:17:44.787Z,10.45
2022-11-12T05:20:26.574Z,11.55
2022-11-12T05:23:09.813Z,10.27
2022-11-12T05:25:51.511Z,9.55
2022-11-12T05:28:33.498Z,10.80
2022-11-12T05:31:15.267Z,9.10
2022-11-12T05:33:57.396Z,11.00
2022-11-12T05:36:39.433Z,13.50
2022-11-12T05:39:22.672Z,10.90
2022-11-12T05:42:13.692Z,9.88
2022-11-12T05:44:55.968Z,8.68
2022-11-12T05:47:37.941Z,10.37
2022-11-12T05:50:19.669Z,9.77
2022-11-12T05:53:01.650Z,9.75
2022-11-12T05:55:44.923Z,8.73
2022-11-12T05:58:26.912Z,11.02
2022-11-12T06:01:09.371Z,8.33
2022-11-12T06:03:52.016Z,13.70
2022-11-12T06:06:34.099Z,10.65
2022-11-12T06:09:15.884Z,10.93
2022-11-12T06:11:58.926Z,12.57
2022-11-12T06:14:40.720Z,16.88
2022-11-12T06:17:22.875Z,11.75
2022-11-12T06:20:05.062Z,13.70
2022-11-12T06:22:46.984Z,15.32
2022-11-12T06:25:28.964Z,11.93
2022-11-12T06:28:12.197Z,11.57
2022-11-12T06:30:54.477Z,10.73
2022-11-12T06:33:36.444Z,11.65
2022-11-12T06:36:20.844Z,10.95
2022-11-12T06:39:02.825Z,12.55
2022-11-12T06:41:44.816Z,12.27
2022-11-12T06:44:27.902Z,17.17
2022-11-12T06:47:09.875Z,14.47
2022-11-12T06:49:51.559Z,11.57
2022-11-12T06:52:33.489Z,13.87
2022-11-12T06:55:15.862Z,12.15
2022-11-12T06:57:58.166Z,12.80
2022-11-12T07:00:41.682Z,14.63
2022-11-12T07:03:23.571Z,15.50
2022-11-12T07:06:08.623Z,15.40
2022-11-12T07:08:50.790Z,15.90
2022-11-12T07:11:32.574Z,14.13
2022-11-12T07:14:14.615Z,13.25
2022-11-12T07:16:57.598Z,15.00
2022-11-12T07:19:39.757Z,14.38
2022-11-12T07:22:21.561Z,14.93
2022-11-12T07:25:03.457Z,15.40
2022-11-12T07:27:45.523Z,16.35
2022-11-12T07:30:27.443Z,17.60
2022-11-12T07:33:10.890Z,15.57
2022-11-12T07:35:59.945Z,18.60
2022-11-12T07:38:43.773Z,16.70
2022-11-12T07:41:26.550Z,17.88
2022-11-12T07:44:09.117Z,15.27
2022-11-12T07:46:51.020Z,16.13
2022-11-12T07:49:34.048Z,12.18
2022-11-12T07:52:15.821Z,12.70
2022-11-12T07:54:57.988Z,14.98
2022-11-12T07:57:39.690Z,11.05
2022-11-12T08:00:22.015Z,11.95
2022-11-12T08:03:04.067Z,11.32
2022-11-12T08:05:47.569Z,13.80
2022-11-12T08:08:30.048Z,11.55
2022-11-12T08:11:12.133Z,11.18
2022-11-12T08:13:54.367Z,11.13
2022-11-12T08:16:36.385Z,10.15
2022-11-12T08:19:18.067Z,10.25
2022-11-12T08:22:01.579Z,12.50
2022-11-12T08:24:43.430Z,8.43
2022-11-12T08:27:25.540Z,10.07
2022-11-12T08:30:09.241Z,9.00
2022-11-12T08:32:58.170Z,9.30
2022-11-12T08:35:40.247Z,9.88
2022-11-12T08:38:23.817Z,8.52
2022-11-12T08:41:08.091Z,10.98
2022-11-12T08:43:49.723Z,7.95
2022-11-12T08:46:31.670Z,7.18
2022-11-12T08:49:13.363Z,8.07
2022-11-12T08:51:55.493Z,10.27
2022-11-12T08:54:38.732Z,6.35
2022-11-12T08:57:20.494Z,6.75
2022-11-12T09:00:02.555Z,8.60
2022-11-12T09:02:44.499Z,6.53
2022-11-12T09:05:26.142Z,6.43
2022-11-12T09:08:10.565Z,9.43
2022-11-12T09:10:54.096Z,9.02
2022-11-12T09:13:36.033Z,9.68
2022-11-12T09:16:18.522Z,8.05
2022-11-12T09:19:00.310Z,6.70
2022-11-12T09:21:42.109Z,6.35
2022-11-12T09:24:24.102Z,6.65
2022-11-12T09:27:07.585Z,5.65
2022-11-12T09:29:49.814Z,7.57
2022-11-12T09:32:31.844Z,5.80
2022-11-12T09:35:13.727Z,5.78
2022-11-12T09:37:55.942Z,6.82
2022-11-12T09:40:56.762Z,6.45
2022-11-12T09:43:48.551Z,6.60
2022-11-12T09:46:38.780Z,6.57
2022-11-12T09:49:25.162Z,5.72
2022-11-12T09:52:17.174Z,6.00
2022-11-12T09:55:05.191Z,7.10
2022-11-12T09:57:47.203Z,6.18
2022-11-12T10:00:31.490Z,8.75
2022-11-12T10:03:25.709Z,5.82
2022-11-12T10:06:19.140Z,5.32
2022-11-12T10:09:06.433Z,6.78
2022-11-12T10:12:24.775Z,7.47
2022-11-12T10:15:56.607Z,6.50
2022-11-12T10:19:18.811Z,6.55
2022-11-12T10:22:16.732Z,6.60
2022-11-12T10:25:00.834Z,5.53
2022-11-12T10:27:44.316Z,6.13
2022-11-12T10:30:27.185Z,5.68
2022-11-12T10:33:15.241Z,5.68
2022-11-12T10:35:59.416Z,6.05
2022-11-12T10:38:43.495Z,6.03
2022-11-12T10:41:28.487Z,4.78
2022-11-12T10:44:15.772Z,6.97
2022-11-12T10:47:23.175Z,9.48
2022-11-12T10:50:17.739Z,7.00
2022-11-12T10:53:02.286Z,7.22
2022-11-12T10:55:57.949Z,6.65
2022-11-12T10:58:39.851Z,4.53
2022-11-12T11:01:21.957Z,7.18
2022-11-12T11:04:04.445Z,6.63
2022-11-12T11:06:47.821Z,5.63
2022-11-12T11:09:29.846Z,7.13
2022-11-12T11:12:25.283Z,7.18
2022-11-12T11:15:20.133Z,6.93
2022-11-12T11:18:02.315Z,9.43
2022-11-12T11:20:49.070Z,8.50
2022-11-12T11:23:40.055Z,9.32
2022-11-12T11:26:34.214Z,8.90
2022-11-12T11:29:33.438Z,7.32
2022-11-12T11:32:37.657Z,5.28
2022-11-12T11:35:28.705Z,4.85
2022-11-12T11:38:36.296Z,7.70
2022-11-12T11:41:51.945Z,5.32
2022-11-12T11:44:41.212Z,6.90
2022-11-12T11:47:59.527Z,6.45
2022-11-12T11:50:43.689Z,7.22
2022-11-12T11:53:31.570Z,7.15
2022-11-12T11:56:24.738Z,5.70
2022-11-12T11:59:21.876Z,7.47
2022-11-12T12:02:27.359Z,7.25
2022-11-12T12:05:30.812Z,5.97
2022-11-12T12:08:19.887Z,6.43
2022-11-12T12:11:09.377Z,6.30
2022-11-12T12:14:10.365Z,6.13
2022-11-12T12:17:05.757Z,5.60
2022-11-12T12:20:00.358Z,6.55
2022-11-12T12:22:47.012Z,7.35
2022-11-12T12:25:33.863Z,5.63
2022-11-12T12:28:27.867Z,6.32
2022-11-12T12:31:17.564Z,5.72
2022-11-12T12:34:06.322Z,4.93
2022-11-12T12:36:52.084Z,4.90
2022-11-12T12:39:48.092Z,5.13
2022-11-12T12:42:35.941Z,4.55
2022-11-12T12:45:39.599Z,4.85
2022-11-12T12:48:27.150Z,6.45
2022-11-12T12:51:09.775Z,6.00
2022-11-12T12:53:51.677Z,3.92
2022-11-12T12:56:50.291Z,7.47
2022-11-12T12:59:33.559Z,4.30
2022-11-12T13:02:22.501Z,5.57
2022-11-12T13:05:06.904Z,8.27
2022-11-12T13:07:50.905Z,5.97
2022-11-12T13:10:54.399Z,5.35
2022-11-12T13:13:37.821Z,5.85
2022-11-12T13:16:57.721Z,7.60
2022-11-12T13:19:46.829Z,4.60
2022-11-12T13:22:51.928Z,5.28
2022-11-12T13:25:34.273Z,7.03
2022-11-12T13:28:16.056Z,4.13
2022-11-12T13:31:02.065Z,5.07
2022-11-12T13:33:44.353Z,4.50
2022-11-12T13:36:29.313Z,4.97
2022-11-12T13:39:16.689Z,5.97
2022-11-12T13:42:17.626Z,4.93
2022-11-12T13:45:01.683Z,5.43
2022-11-12T13:47:44.906Z,6.40
2022-11-12T13:50:27.638Z,5.25
2022-11-12T13:53:11.265Z,4.55
2022-11-12T13:55:56.173Z,4.97
2022-11-12T13:58:39.741Z,6.13
2022-11-12T14:01:24.430Z,5.53
2022-11-12T14:04:12.065Z,5.28
2022-11-12T14:06:58.516Z,9.15
2022-11-12T14:10:00.363Z,5.90
2022-11-12T14:13:18.401Z,5.60
2022-11-12T14:16:36.458Z,6.78
2022-11-12T14:20:01.415Z,4.55
2022-11-12T14:22:45.225Z,9.35
2022-11-12T14:25:29.600Z,5.22
2022-11-12T14:28:28.872Z,6.72
2022-11-12T14:31:16.040Z,5.55
2022-11-12T14:33:58.166Z,6.63
2022-11-12T14:36:40.051Z,5.53
2022-11-12T14:39:21.998Z,7.38
2022-11-12T14:42:04.360Z,4.72
2022-11-12T14:44:47.743Z,4.88
2022-11-12T14:47:29.673Z,4.70
2022-11-12T14:50:17.291Z,4.75
2022-11-12T14:53:03.154Z,5.30
2022-11-12T14:55:50.443Z,4.53
2022-11-12T14:58:34.771Z,6.00
2022-11-12T15:04:27.405Z,6.07
2022-11-12T15:07:28.825Z,4.82
2022-11-12T15:10:33.037Z,4.78
2022-11-12T15:13:19.351Z,5.40
2022-11-12T15:16:08.135Z,7.20
2022-11-12T15:19:15.063Z,5.70
2022-11-12T15:22:01.249Z,5.97
2022-11-12T15:24:44.822Z,4.20
2022-11-12T15:27:37.167Z,7.13
2022-11-12T15:30:24.636Z,4.82
2022-11-12T15:33:19.023Z,4.70
2022-11-12T15:36:03.135Z,5.82
2022-11-12T15:38:51.224Z,5.80
2022-11-12T15:41:35.864Z,6.65
2022-11-12T15:44:18.289Z,8.85
2022-11-12T15:47:01.274Z,5.80
2022-11-12T15:49:52.604Z,7.70
2022-11-12T15:52:36.092Z,6.55
2022-11-12T15:55:19.525Z,4.90
2022-11-12T15:58:01.299Z,6.28
2022-11-12T16:00:43.261Z,6.47
2022-11-12T16:03:25.733Z,7.93
2022-11-12T16:06:11.149Z,7.40
2022-11-12T16:08:54.210Z,8.40
2022-11-12T16:11:39.741Z,9.18
2022-11-12T16:14:24.849Z,6.70
2022-11-12T16:17:10.054Z,7.35
2022-11-12T16:19:51.792Z,6.72
2022-11-12T16:22:33.803Z,7.40
2022-11-12T16:25:18.217Z,6.57
2022-11-12T16:28:00.786Z,6.40
2022-11-12T16:30:43.572Z,5.85
2022-11-12T16:33:39.932Z,6.68
2022-11-12T16:36:28.105Z,5.53
2022-11-12T16:39:13.266Z,8.20
2022-11-12T16:41:56.872Z,7.05
2022-11-12T16:44:39.386Z,9.48
2022-11-12T16:47:21.411Z,9.13
2022-11-12T16:50:03.191Z,9.40
2022-11-12T16:52:45.191Z,8.43
2022-11-12T16:55:27.406Z,9.25
2022-11-12T16:58:14.414Z,7.75
2022-11-12T17:00:56.453Z,7.63
2022-11-12T17:03:38.241Z,7.45
2022-11-12T17:06:21.286Z,10.65
2022-11-12T17:09:02.997Z,9.20
2022-11-12T17:11:44.715Z,9.27
2022-11-12T17:14:29.366Z,11.32
2022-11-12T17:17:11.475Z,9.55
2022-11-12T17:19:53.203Z,8.45
2022-11-12T17:22:35.427Z,9.30
2022-11-12T17:25:17.283Z,10.52
2022-11-12T17:27:58.901Z,10.73
2022-11-12T17:30:42.044Z,10.73
2022-11-12T17:33:24.163Z,9.73
2022-11-12T17:36:08.687Z,16.23
2022-11-12T17:38:55.986Z,13.45
2022-11-12T17:41:37.849Z,18.63
2022-11-12T17:44:21.243Z,14.50
2022-11-12T17:47:04.843Z,17.13
2022-11-12T17:49:47.096Z,18.20
2022-11-12T17:52:29.080Z,16.63
2022-11-12T17:55:11.292Z,17.92
2022-11-12T17:57:52.910Z,18.67
2022-11-12T18:00:35.449Z,17.85
2022-11-12T18:03:18.697Z,15.38
2022-11-12T18:06:02.289Z,17.90
2022-11-12T18:08:44.913Z,20.15
2022-11-12T18:11:28.769Z,18.70
2022-11-12T18:14:10.995Z,16.20
2022-11-12T18:16:53.335Z,14.50
2022-11-12T18:19:36.405Z,15.95
2022-11-12T18:22:19.447Z,14.73
2022-11-12T18:25:01.119Z,14.77
2022-11-12T18:27:43.063Z,14.13
2022-11-12T18:30:24.878Z,15.77
2022-11-12T18:33:07.228Z,15.15
2022-11-12T18:36:01.131Z,14.80
2022-11-12T18:38:42.895Z,18.15
2022-11-12T18:41:28.413Z,14.65
2022-11-12T18:44:11.499Z,16.50
2022-11-12T18:46:53.963Z,16.63
2022-11-12T18:49:36.021Z,15.25
2022-11-12T18:52:19.384Z,13.60
2022-11-12T18:55:01.632Z,14.93
2022-11-12T18:57:43.187Z,18.30
2022-11-12T19:00:25.742Z,16.20
2022-11-12T19:03:07.538Z,14.95
2022-11-12T19:05:49.455Z,16.45
2022-11-12T19:08:32.977Z,18.13
2022-11-12T19:11:18.637Z,17.10
2022-11-12T19:14:00.236Z,18.35
2022-11-12T19:16:44.713Z,17.83
2022-11-12T19:19:26.771Z,20.50
2022-11-12T19:22:08.379Z,17.83
2022-11-12T19:24:51.845Z,19.52
2022-11-12T19:27:33.996Z,19.08
2022-11-12T19:30:16.287Z,15.93
2022-11-12T19:32:58.281Z,19.60
2022-11-12T19:35:41.506Z,20.48
2022-11-12T19:38:23.586Z,17.05
2022-11-12T19:41:08.399Z,18.02
2022-11-12T19:43:50.119Z,23.45
2022-11-12T19:46:32.471Z,18.30
2022-11-12T19:49:14.208Z,21.88
2022-11-12T19:51:56.136Z,19.15
2022-11-12T19:54:38.203Z,19.00
2022-11-12T19:57:21.528Z,28.33
2022-11-12T20:00:03.809Z,27.00
2022-11-12T20:02:45.708Z,19.58
2022-11-12T20:05:27.556Z,22.08
2022-11-12T20:08:09.371Z,20.17
2022-11-12T20:10:51.316Z,22.30
2022-11-12T20:13:34.750Z,18.92
2022-11-12T20:16:23.788Z,21.67
2022-11-12T20:19:07.094Z,24.27
2022-11-12T20:21:48.949Z,18.23
2022-11-12T20:24:31.035Z,18.67
2022-11-12T20:27:13.093Z,17.92
2022-11-12T20:29:56.262Z,23.30
2022-11-12T20:32:38.350Z,18.60
2022-11-12T20:35:22.386Z,20.90
2022-11-12T20:38:04.466Z,19.73
2022-11-12T20:40:49.119Z,17.85
2022-11-12T20:43:30.764Z,25.00
2022-11-12T20:46:15.147Z,20.10
2022-11-12T20:48:57.263Z,19.63
2022-11-12T20:51:39.722Z,21.90
2022-11-12T20:54:21.875Z,17.80
2022-11-12T20:57:04.034Z,17.83
2022-11-12T20:59:46.506Z,10.90
2022-11-12T21:02:31.657Z,13.82
2022-11-12T21:05:13.933Z,12.25
2022-11-12T21:07:56.583Z,14.10
2022-11-12T21:10:39.528Z,11.88
2022-11-12T21:13:21.825Z,10.13
2022-11-12T21:16:04.342Z,10.95
2022-11-12T21:18:47.740Z,9.55
2022-11-12T21:21:31.687Z,10.45
2022-11-12T21:24:13.998Z,12.18
2022-11-12T21:26:55.731Z,11.45
2022-11-12T21:29:37.875Z,9.30
2022-11-12T21:32:19.811Z,12.00
2022-11-12T21:35:03.162Z,12.18
2022-11-12T21:37:44.897Z,10.07
2022-11-12T21:40:26.960Z,9.15
2022-11-12T21:43:08.755Z,8.75
2022-11-12T21:45:50.686Z,11.88
2022-11-12T21:48:32.447Z,9.38
2022-11-12T21:51:17.745Z,13.15
2022-11-12T21:54:03.154Z,9.80
2022-11-12T21:56:45.162Z,10.18
2022-11-12T21:59:27.498Z,10.43
2022-11-12T22:02:11.361Z,10.15
2022-11-12T22:04:53.551Z,11.93
2022-11-12T22:07:36.823Z,9.23
2022-11-12T22:10:21.985Z,10.55
2022-11-12T22:13:26.047Z,13.35
2022-11-12T22:16:08.404Z,15.52
2022-11-12T22:18:53.406Z,17.17
2022-11-12T22:21:39.690Z,17.50
2022-11-12T22:24:23.510Z,27.17
2022-11-12T22:27:05.873Z,27.30
2022-11-12T22:29:47.963Z,24.70
2022-11-12T22:32:29.607Z,21.13
2022-11-12T22:35:11.484Z,21.20
2022-11-12T22:37:53.243Z,17.70
2022-11-12T22:40:36.596Z,17.88
2022-11-12T22:43:18.509Z,14.85
2022-11-12T22:46:06.131Z,12.20
2022-11-12T22:48:48.729Z,13.63
2022-11-12T22:51:33.983Z,13.50
2022-11-12T22:54:18.057Z,11.63
2022-11-12T22:57:01.539Z,11.52
2022-11-12T22:59:43.431Z,14.82
2022-11-12T23:02:25.343Z,11.07
2022-11-12T23:05:07.862Z,11.95
2022-11-12T23:07:50.298Z,11.93
2022-11-12T23:10:32.208Z,12.90
2022-11-12T23:13:15.786Z,15.07
2022-11-12T23:15:57.548Z,10.98
2022-11-12T23:18:39.183Z,11.60
2022-11-12T23:21:24.667Z,13.32
2022-11-12T23:24:07.467Z,11.40
2022-11-12T23:26:49.443Z,13.75
2022-11-12T23:29:32.592Z,15.88
2022-11-12T23:32:14.506Z,12.75
2022-11-12T23:34:56.258Z,11.70
2022-11-12T23:37:38.069Z,13.13
2022-11-12T23:40:20.608Z,12.93
2022-11-12T23:43:02.381Z,14.05
2022-11-12T23:45:45.741Z,13.13
2022-11-12T23:48:28.542Z,12.20
2022-11-12T23:51:13.989Z,12.18
2022-11-12T23:53:55.900Z,12.55
2022-11-12T23:56:37.737Z,11.02
2022-11-12T23:59:20.036Z,11.60
